createdAt,value
2022-10-28T00:01:17.198Z,101804.63
2022-10-28T00:03:50.802Z,101810.22
2022-10-28T00:06:21.409Z,101814.53
2022-10-28T00:08:49.846Z,101815.59
2022-10-28T00:11:21.790Z,101816.66
2022-10-28T00:13:50.760Z,101804.41
2022-10-28T00:16:25.534Z,101803.56
2022-10-28T00:18:53.906Z,101809.91
2022-10-28T00:21:26.995Z,101812.72
2022-10-28T00:23:54.458Z,101802.16
2022-10-28T00:26:24.833Z,101809.78
2022-10-28T00:28:57.757Z,101813.63
2022-10-28T00:31:27.012Z,101819.84
2022-10-28T00:33:54.727Z,101822.31
2022-10-28T00:36:28.065Z,101809.44
2022-10-28T00:38:58.401Z,101808.84
2022-10-28T00:41:34.515Z,101798.31
2022-10-28T00:44:40.045Z,101812.47
2022-10-28T00:47:33.317Z,101820.53
2022-10-28T00:50:48.474Z,101812.69
2022-10-28T00:53:29.741Z,101809.66
2022-10-28T00:55:59.987Z,101808.97
2022-10-28T00:58:27.665Z,101809.78
2022-10-28T01:00:54.889Z,101806.59
2022-10-28T01:03:22.085Z,101793.16
2022-10-28T01:05:49.767Z,101793.25
2022-10-28T01:08:17.462Z,101794.66
2022-10-28T01:10:57.908Z,101795.00
2022-10-28T01:13:36.711Z,101784.47
2022-10-28T01:16:15.684Z,101782.72
2022-10-28T01:19:35.339Z,101792.44
2022-10-28T01:22:27.253Z,101793.00
2022-10-28T01:24:56.854Z,101804.59
2022-10-28T01:27:56.114Z,101785.28
2022-10-28T01:30:29.198Z,101787.16
2022-10-28T01:33:10.082Z,101776.59
2022-10-28T01:35:50.444Z,101782.91
2022-10-28T01:38:31.172Z,101777.31
2022-10-28T01:41:14.793Z,101768.16
2022-10-28T01:43:54.988Z,101771.09
2022-10-28T01:46:26.740Z,101764.31
2022-10-28T01:49:06.905Z,101775.19
2022-10-28T01:51:44.659Z,101764.66
2022-10-28T01:54:17.157Z,101761.63
2022-10-28T01:56:47.054Z,101766.19
2022-10-28T01:59:20.140Z,101762.09
2022-10-28T02:01:47.449Z,101759.63
2022-10-28T02:04:14.657Z,101769.59
2022-10-28T02:06:44.453Z,101760.94
2022-10-28T02:09:34.769Z,101752.25
2022-10-28T02:12:40.810Z,101755.78
2022-10-28T02:15:20.069Z,101754.63
2022-10-28T02:18:24.084Z,101744.09
2022-10-28T02:21:00.452Z,101746.44
2022-10-28T02:23:45.211Z,101734.16
2022-10-28T02:26:40.509Z,101738.94
2022-10-28T02:29:37.468Z,101735.69
2022-10-28T02:32:18.560Z,101738.59
2022-10-28T02:34:50.228Z,101750.66
2022-10-28T02:37:24.301Z,101743.41
2022-10-28T02:39:59.223Z,101740.13
2022-10-28T02:42:31.031Z,101741.44
2022-10-28T02:45:06.882Z,101750.31
2022-10-28T02:47:40.425Z,101769.16
2022-10-28T02:50:14.472Z,101753.25
2022-10-28T02:52:45.212Z,101755.13
2022-10-28T02:55:12.162Z,101748.34
2022-10-28T02:57:44.840Z,101745.41
2022-10-28T03:00:18.698Z,101739.69
2022-10-28T03:02:46.100Z,101746.34
2022-10-28T03:05:14.184Z,101741.44
2022-10-28T03:07:41.431Z,101752.78
2022-10-28T03:10:09.179Z,101744.56
2022-10-28T03:12:36.141Z,101753.03
2022-10-28T03:15:03.701Z,101740.84
2022-10-28T03:17:30.759Z,101737.53
2022-10-28T03:19:57.669Z,101740.47
2022-10-28T03:22:24.497Z,101734.13
2022-10-28T03:24:51.365Z,101729.44
2022-10-28T03:27:18.878Z,101737.88
2022-10-28T03:29:46.117Z,101741.03
2022-10-28T03:32:13.617Z,101735.06
2022-10-28T03:34:41.020Z,101740.09
2022-10-28T03:37:08.061Z,101737.63
2022-10-28T03:39:35.011Z,101732.72
2022-10-28T03:42:02.131Z,101727.00
2022-10-28T03:44:29.180Z,101733.41
2022-10-28T03:46:56.035Z,101731.78
2022-10-28T03:49:23.043Z,101736.22
2022-10-28T03:51:49.888Z,101750.25
2022-10-28T03:54:16.749Z,101754.22
2022-10-28T03:56:43.796Z,101756.09
2022-10-28T03:59:11.231Z,101760.53
2022-10-28T04:01:39.413Z,101754.94
2022-10-28T04:04:06.512Z,101754.81
2022-10-28T04:06:33.414Z,101749.06
2022-10-28T04:09:00.349Z,101738.56
2022-10-28T04:11:27.239Z,101739.72
2022-10-28T04:13:54.147Z,101738.06
2022-10-28T04:16:20.985Z,101740.75
2022-10-28T04:18:47.761Z,101729.66
2022-10-28T04:21:14.879Z,101722.03
2022-10-28T04:23:42.028Z,101739.47
2022-10-28T04:26:08.864Z,101733.13
2022-10-28T04:28:35.995Z,101726.13
2022-10-28T04:31:02.847Z,101726.59
2022-10-28T04:33:29.937Z,101731.13
2022-10-28T04:35:56.753Z,101737.78
2022-10-28T04:40:55.816Z,101732.06
2022-10-28T04:43:22.848Z,101737.91
2022-10-28T04:45:49.721Z,101739.97
2022-10-28T04:48:16.534Z,101731.31
2022-10-28T04:50:43.915Z,101728.84
2022-10-28T04:53:11.785Z,101724.53
2022-10-28T04:55:39.203Z,101727.66
2022-10-28T04:58:06.345Z,101719.84
2022-10-28T05:00:33.332Z,101722.75
2022-10-28T05:03:03.569Z,101716.78
2022-10-28T05:05:30.750Z,101708.59
2022-10-28T05:07:57.981Z,101719.13
2022-10-28T05:10:25.176Z,101710.69
2022-10-28T05:12:52.318Z,101708.47
2022-10-28T05:15:19.239Z,101718.75
2022-10-28T05:17:48.309Z,101724.59
2022-10-28T05:20:17.591Z,101713.00
2022-10-28T05:22:53.764Z,101711.59
2022-10-28T05:25:21.876Z,101710.19
2022-10-28T05:27:49.395Z,101720.94
2022-10-28T05:30:16.393Z,101726.53
2022-10-28T05:32:43.441Z,101722.00
2022-10-28T05:35:10.657Z,101709.81
2022-10-28T05:37:37.593Z,101704.44
2022-10-28T05:40:05.087Z,101696.00
2022-10-28T05:42:32.028Z,101704.06
2022-10-28T05:44:58.863Z,101716.69
2022-10-28T05:47:26.064Z,101701.59
2022-10-28T05:49:56.857Z,101705.13
2022-10-28T05:52:23.622Z,101704.53
2022-10-28T05:54:50.641Z,101698.91
2022-10-28T05:57:17.585Z,101695.19
2022-10-28T05:59:44.441Z,101702.44
2022-10-28T06:05:07.568Z,101689.13
2022-10-28T06:07:34.952Z,101699.69
2022-10-28T06:10:03.149Z,101703.53
2022-10-28T06:12:28.697Z,101707.66
2022-10-28T06:14:55.998Z,101708.38
2022-10-28T06:17:23.003Z,101709.09
2022-10-28T06:19:50.238Z,101706.16
2022-10-28T06:22:17.486Z,101698.59
2022-10-28T06:24:44.509Z,101706.59
2022-10-28T06:27:11.385Z,101705.66
2022-10-28T06:29:38.228Z,101700.66
2022-10-28T06:32:09.146Z,101692.69
2022-10-28T06:34:37.725Z,101687.22
2022-10-28T06:37:09.247Z,101688.97
2022-10-28T06:39:39.237Z,101699.38
2022-10-28T06:42:06.245Z,101708.16
2022-10-28T06:44:33.070Z,101698.09
2022-10-28T06:47:01.786Z,101694.94
2022-10-28T06:49:29.453Z,101697.50
2022-10-28T06:51:56.471Z,101694.34
2022-10-28T06:54:23.337Z,101686.28
2022-10-28T06:56:50.576Z,101691.53
2022-10-28T06:59:17.484Z,101682.41
2022-10-28T07:01:44.804Z,101698.66
2022-10-28T07:04:13.268Z,101706.69
2022-10-28T07:06:41.569Z,101701.06
2022-10-28T07:09:10.134Z,101698.00
2022-10-28T07:11:37.385Z,101701.63
2022-10-28T07:14:04.230Z,101703.25
2022-10-28T07:16:31.271Z,101708.25
2022-10-28T07:18:58.391Z,101698.16
2022-10-28T07:21:28.347Z,101712.50
2022-10-28T07:23:56.513Z,101714.19
2022-10-28T07:26:24.194Z,101710.28
2022-10-28T07:28:51.299Z,101698.84
2022-10-28T07:31:18.553Z,101700.00
2022-10-28T07:33:55.378Z,101701.63
2022-10-28T07:36:22.283Z,101700.91
2022-10-28T07:38:53.905Z,101696.13
2022-10-28T07:41:22.213Z,101681.28
2022-10-28T07:43:49.385Z,101689.22
2022-10-28T07:46:17.972Z,101683.13
2022-10-28T07:48:44.958Z,101682.06
2022-10-28T07:51:15.184Z,101678.31
2022-10-28T07:53:42.468Z,101669.94
2022-10-28T07:56:14.576Z,101675.09
2022-10-28T07:58:43.252Z,101673.94
2022-10-28T08:01:12.791Z,101674.38
2022-10-28T08:03:40.143Z,101657.91
2022-10-28T08:06:10.348Z,101663.91
2022-10-28T08:08:38.303Z,101664.72
2022-10-28T08:11:22.445Z,101647.56
2022-10-28T08:13:52.148Z,101650.75
2022-10-28T08:16:19.583Z,101660.94
2022-10-28T08:18:46.734Z,101667.06
2022-10-28T08:21:14.957Z,101669.09
2022-10-28T08:23:46.569Z,101677.78
2022-10-28T08:26:15.931Z,101667.88
2022-10-28T08:28:43.408Z,101670.38
2022-10-28T08:31:12.633Z,101685.25
2022-10-28T08:33:44.640Z,101681.59
2022-10-28T08:36:17.153Z,101658.34
2022-10-28T08:38:46.150Z,101661.03
2022-10-28T08:41:39.200Z,101663.72
2022-10-28T08:44:30.905Z,101655.47
2022-10-28T08:50:31.779Z,101661.69
2022-10-28T08:53:12.540Z,101654.22
2022-10-28T08:55:52.916Z,101649.94
2022-10-28T08:58:31.691Z,101637.03
2022-10-28T09:01:04.192Z,101647.38
2022-10-28T09:03:39.233Z,101653.19
2022-10-28T09:06:11.287Z,101651.22
2022-10-28T09:08:46.865Z,101645.97
2022-10-28T09:15:14.061Z,101643.97
2022-10-28T09:17:54.512Z,101648.06
2022-10-28T09:21:11.996Z,101645.34
2022-10-28T09:24:42.044Z,101638.69
2022-10-28T09:27:36.578Z,101629.00
2022-10-28T09:30:17.784Z,101628.75
2022-10-28T09:33:13.393Z,101609.41
2022-10-28T09:35:44.613Z,101611.28
2022-10-28T09:38:31.813Z,101598.13
2022-10-28T09:41:10.650Z,101594.28
2022-10-28T09:43:54.973Z,101612.69
2022-10-28T09:46:24.358Z,101597.63
2022-10-28T09:48:55.641Z,101583.41
2022-10-28T09:51:52.283Z,101583.00
2022-10-28T09:54:28.280Z,101575.47
2022-10-28T09:56:57.305Z,101580.66
2022-10-28T09:59:24.120Z,101594.19
2022-10-28T10:01:52.180Z,101584.88
2022-10-28T10:04:26.880Z,101585.56
2022-10-28T10:07:09.586Z,101570.03
2022-10-28T10:09:39.581Z,101565.75
2022-10-28T10:12:11.289Z,101571.81
2022-10-28T10:14:48.485Z,101564.63
2022-10-28T10:17:20.083Z,101550.69
2022-10-28T10:20:16.937Z,101550.69
2022-10-28T10:22:45.598Z,101545.63
2022-10-28T10:28:03.882Z,101549.19
2022-10-28T10:30:46.375Z,101547.16
2022-10-28T10:33:28.554Z,101558.41
2022-10-28T10:36:10.086Z,101549.09
2022-10-28T10:38:38.630Z,101550.19
2022-10-28T10:41:06.322Z,101536.50
2022-10-28T10:43:39.961Z,101532.34
2022-10-28T10:46:18.071Z,101533.94
2022-10-28T10:48:45.577Z,101530.59
2022-10-28T10:51:23.032Z,101524.88
2022-10-28T10:53:55.711Z,101517.38
2022-10-28T10:56:29.001Z,101520.44
2022-10-28T10:59:01.708Z,101513.63
2022-10-28T11:01:35.643Z,101516.16
2022-10-28T11:04:18.482Z,101516.84
2022-10-28T11:06:51.921Z,101500.47
2022-10-28T11:09:35.205Z,101493.72
2022-10-28T11:12:35.538Z,101490.41
2022-10-28T11:15:30.136Z,101483.25
2022-10-28T11:18:21.027Z,101478.75
2022-10-28T11:20:56.748Z,101476.00
2022-10-28T11:23:54.741Z,101488.69
2022-10-28T11:26:24.185Z,101476.06
2022-10-28T11:29:07.533Z,101480.69
2022-10-28T11:32:23.597Z,101483.13
2022-10-28T11:35:28.473Z,101476.81
2022-10-28T11:38:05.047Z,101478.78
2022-10-28T11:41:15.673Z,101471.19
2022-10-28T11:44:00.879Z,101465.78
2022-10-28T11:47:25.999Z,101468.97
2022-10-28T11:50:23.053Z,101466.59
2022-10-28T11:53:24.721Z,101468.66
2022-10-28T11:56:10.096Z,101462.75
2022-10-28T11:59:07.711Z,101452.44
2022-10-28T12:02:05.190Z,101454.09
2022-10-28T12:04:55.984Z,101457.31
2022-10-28T12:07:41.453Z,101446.50
2022-10-28T12:10:14.121Z,101441.66
2022-10-28T12:13:07.143Z,101446.03
2022-10-28T12:16:00.302Z,101450.44
2022-10-28T12:18:43.336Z,101445.72
2022-10-28T12:21:36.496Z,101436.88
2022-10-28T12:24:11.842Z,101445.22
2022-10-28T12:26:44.182Z,101446.28
2022-10-28T12:29:34.209Z,101444.56
2022-10-28T12:32:05.875Z,101442.47
2022-10-28T12:34:43.391Z,101449.22
2022-10-28T12:37:22.983Z,101442.25
2022-10-28T12:40:06.499Z,101440.84
2022-10-28T12:42:43.139Z,101430.31
2022-10-28T12:45:17.920Z,101449.50
2022-10-28T12:48:00.457Z,101445.50
2022-10-28T12:53:42.886Z,101431.19
2022-10-28T12:56:24.668Z,101425.75
2022-10-28T12:59:13.319Z,101425.41
2022-10-28T13:01:41.140Z,101420.94
2022-10-28T13:04:15.107Z,101412.44
2022-10-28T13:07:27.897Z,101427.09
2022-10-28T13:10:46.298Z,101407.22
2022-10-28T13:13:27.751Z,101414.84
2022-10-28T13:16:15.630Z,101426.59
2022-10-28T13:19:17.945Z,101419.16
2022-10-28T13:25:18.743Z,101426.00
2022-10-28T13:27:46.096Z,101415.88
2022-10-28T13:30:24.735Z,101410.69
2022-10-28T13:33:13.950Z,101411.94
2022-10-28T13:35:40.857Z,101402.19
2022-10-28T13:38:13.313Z,101394.19
2022-10-28T13:40:40.024Z,101397.63
2022-10-28T13:43:22.009Z,101404.19
2022-10-28T13:45:56.297Z,101401.19
2022-10-28T13:51:22.237Z,101390.41
2022-10-28T13:53:57.218Z,101391.63
2022-10-28T13:56:46.673Z,101394.78
2022-10-28T13:59:13.511Z,101396.81
2022-10-28T14:02:35.669Z,101403.50
2022-10-28T14:05:10.062Z,101406.47
2022-10-28T14:07:50.617Z,101402.91
2022-10-28T14:10:26.040Z,101411.88
2022-10-28T14:15:48.668Z,101405.78
2022-10-28T14:18:41.799Z,101414.72
2022-10-28T14:21:04.702Z,101418.16
2022-10-28T14:23:36.615Z,101418.84
2022-10-28T14:26:05.514Z,101412.63
2022-10-28T14:28:32.241Z,101410.53
2022-10-28T14:31:08.671Z,101407.41
2022-10-28T14:33:37.684Z,101403.19
2022-10-28T14:36:16.978Z,101409.69
2022-10-28T14:39:17.856Z,101401.13
2022-10-28T14:42:27.172Z,101412.66
2022-10-28T14:45:12.381Z,101419.59
2022-10-28T14:48:09.363Z,101414.66
2022-10-28T14:50:49.807Z,101411.97
2022-10-28T14:53:29.590Z,101412.16
2022-10-28T14:59:04.732Z,101407.47
2022-10-28T15:02:18.868Z,101397.81
2022-10-28T15:04:48.926Z,101398.75
2022-10-28T15:07:18.819Z,101407.59
2022-10-28T15:09:53.763Z,101406.94
2022-10-28T15:12:26.126Z,101402.56
2022-10-28T15:14:58.948Z,101406.50
2022-10-28T15:17:30.995Z,101405.66
2022-10-28T15:20:00.178Z,101408.81
2022-10-28T15:22:33.222Z,101411.66
2022-10-28T15:25:09.457Z,101410.41
2022-10-28T15:27:39.441Z,101402.88
2022-10-28T15:30:25.961Z,101410.69
2022-10-28T15:32:54.914Z,101415.25
2022-10-28T15:35:40.169Z,101398.34
2022-10-28T15:38:28.297Z,101416.75
2022-10-28T15:40:55.621Z,101412.13
2022-10-28T15:43:29.759Z,101409.91
2022-10-28T15:46:16.260Z,101414.28
2022-10-28T15:48:43.261Z,101400.22
2022-10-28T15:51:18.940Z,101405.78
2022-10-28T15:53:47.782Z,101407.53
2022-10-28T15:56:14.531Z,101415.31
2022-10-28T15:58:48.956Z,101410.88
2022-10-28T16:01:34.914Z,101412.97
2022-10-28T16:04:02.384Z,101412.59
2022-10-28T16:06:37.361Z,101406.22
2022-10-28T16:09:18.976Z,101406.41
2022-10-28T16:11:50.934Z,101403.06
2022-10-28T16:14:38.685Z,101401.00
2022-10-28T16:17:17.113Z,101411.81
2022-10-28T16:20:04.108Z,101405.41
2022-10-28T16:22:34.333Z,101406.38
2022-10-28T16:25:01.282Z,101404.78
2022-10-28T16:27:32.145Z,101411.44
2022-10-28T16:30:03.083Z,101397.44
2022-10-28T16:32:40.831Z,101404.59
2022-10-28T16:35:16.583Z,101404.44
2022-10-28T16:37:50.705Z,101404.81
2022-10-28T16:43:16.388Z,101414.31
2022-10-28T16:45:43.891Z,101410.34
2022-10-28T16:48:18.775Z,101411.50
2022-10-28T16:50:52.273Z,101411.31
2022-10-28T16:56:13.788Z,101408.47
2022-10-28T16:58:42.484Z,101410.66
2022-10-28T17:01:11.767Z,101407.19
2022-10-28T17:03:38.843Z,101403.72
2022-10-28T17:06:06.160Z,101414.09
2022-10-28T17:08:57.107Z,101413.06
2022-10-28T17:11:19.931Z,101410.97
2022-10-28T17:13:47.927Z,101418.09
2022-10-28T17:16:14.953Z,101416.81
2022-10-28T17:18:43.616Z,101408.69
2022-10-28T17:21:10.616Z,101409.56
2022-10-28T17:23:39.844Z,101411.53
2022-10-28T17:26:06.878Z,101421.38
2022-10-28T17:28:33.755Z,101428.50
2022-10-28T17:31:06.975Z,101435.59
2022-10-28T17:33:34.593Z,101432.41
2022-10-28T17:36:06.360Z,101430.50
2022-10-28T17:38:33.271Z,101433.84
2022-10-28T17:41:00.341Z,101431.69
2022-10-28T17:43:27.982Z,101426.31
2022-10-28T17:46:06.951Z,101423.06
2022-10-28T17:48:34.461Z,101411.44
2022-10-28T17:51:01.262Z,101421.28
2022-10-28T17:53:28.600Z,101418.31
2022-10-28T17:56:01.257Z,101427.84
2022-10-28T17:58:28.628Z,101421.63
2022-10-28T18:01:08.856Z,101423.00
2022-10-28T18:03:38.944Z,101421.69
2022-10-28T18:06:13.521Z,101416.81
2022-10-28T18:08:42.527Z,101428.81
2022-10-28T18:11:13.238Z,101427.47
2022-10-28T18:13:44.956Z,101421.53
2022-10-28T18:16:19.282Z,101415.28
2022-10-28T18:18:46.385Z,101424.81
2022-10-28T18:21:14.714Z,101422.13
2022-10-28T18:23:41.827Z,101421.56
2022-10-28T18:26:14.590Z,101430.53
2022-10-28T18:28:43.751Z,101433.53
2022-10-28T18:31:19.850Z,101427.84
2022-10-28T18:33:47.897Z,101421.34
2022-10-28T18:36:22.212Z,101424.63
2022-10-28T18:38:50.707Z,101420.28
2022-10-28T18:41:27.123Z,101423.56
2022-10-28T18:43:59.827Z,101422.50
2022-10-28T18:46:28.983Z,101423.06
2022-10-28T18:51:27.648Z,101425.53
2022-10-28T18:53:56.470Z,101417.13
2022-10-28T18:56:26.996Z,101429.34
2022-10-28T18:58:55.232Z,101429.63
2022-10-28T19:01:28.027Z,101414.97
2022-10-28T19:04:01.299Z,101426.38
2022-10-28T19:06:32.550Z,101426.09
2022-10-28T19:09:04.303Z,101424.75
2022-10-28T19:11:32.673Z,101420.97
2022-10-28T19:14:02.499Z,101425.34
2022-10-28T19:16:33.097Z,101427.78
2022-10-28T19:19:03.191Z,101422.91
2022-10-28T19:21:30.801Z,101422.38
2022-10-28T19:23:57.840Z,101422.94
2022-10-28T19:26:25.283Z,101429.72
2022-10-28T19:28:52.355Z,101421.59
2022-10-28T19:31:23.565Z,101427.84
2022-10-28T19:33:53.012Z,101424.03
2022-10-28T19:36:26.273Z,101426.47
2022-10-28T19:38:55.278Z,101435.16
2022-10-28T19:41:25.450Z,101438.41
2022-10-28T19:44:01.033Z,101434.06
2022-10-28T19:46:30.896Z,101433.00
2022-10-28T19:48:59.930Z,101432.72
2022-10-28T19:51:36.122Z,101437.63
2022-10-28T19:54:12.247Z,101442.78
2022-10-28T19:56:40.065Z,101443.31
2022-10-28T19:59:07.312Z,101438.44
2022-10-28T20:01:39.131Z,101446.31
2022-10-28T20:04:08.010Z,101458.50
2022-10-28T20:06:38.148Z,101452.00
2022-10-28T20:09:06.546Z,101453.09
2022-10-28T20:11:37.553Z,101468.28
2022-10-28T20:14:12.577Z,101462.03
2022-10-28T20:16:45.955Z,101467.19
2022-10-28T20:19:13.159Z,101465.00
2022-10-28T20:21:40.552Z,101476.41
2022-10-28T20:24:07.860Z,101466.91
2022-10-28T20:26:37.828Z,101452.28
2022-10-28T20:29:06.696Z,101473.69
2022-10-28T20:31:33.861Z,101468.28
2022-10-28T20:34:03.940Z,101482.91
2022-10-28T20:36:40.698Z,101476.69
2022-10-28T20:39:20.918Z,101481.28
2022-10-28T20:41:49.585Z,101474.25
2022-10-28T20:44:16.636Z,101478.56
2022-10-28T20:46:45.127Z,101474.50
2022-10-28T20:49:13.418Z,101462.03
2022-10-28T20:51:40.904Z,101464.47
2022-10-28T20:54:07.935Z,101468.81
2022-10-28T20:56:38.207Z,101474.25
2022-10-28T20:59:06.013Z,101473.69
2022-10-28T21:01:39.181Z,101471.53
2022-10-28T21:04:09.846Z,101475.31
2022-10-28T21:06:40.434Z,101479.94
2022-10-28T21:09:08.764Z,101484.53
2022-10-28T21:11:35.793Z,101476.94
2022-10-28T21:14:02.908Z,101484.53
2022-10-28T21:16:30.506Z,101487.25
2022-10-28T21:18:59.186Z,101491.59
2022-10-28T21:21:27.728Z,101489.44
2022-10-28T21:23:55.113Z,101488.63
2022-10-28T21:26:22.416Z,101490.78
2022-10-28T21:28:51.950Z,101494.03
2022-10-28T21:31:20.440Z,101483.69
2022-10-28T21:36:22.508Z,101489.94
2022-10-28T21:38:54.799Z,101479.63
2022-10-28T21:41:23.579Z,101483.16
2022-10-28T21:43:52.864Z,101481.25
2022-10-28T21:46:21.390Z,101474.75
2022-10-28T21:48:48.386Z,101480.19
2022-10-28T21:51:16.551Z,101482.06
2022-10-28T21:53:45.057Z,101474.22
2022-10-28T21:56:19.474Z,101489.38
2022-10-28T21:58:51.256Z,101486.69
2022-10-28T22:01:24.623Z,101485.88
2022-10-28T22:03:54.582Z,101477.72
2022-10-28T22:06:22.371Z,101482.63
2022-10-28T22:08:49.288Z,101482.06
2022-10-28T22:11:19.517Z,101483.41
2022-10-28T22:13:48.551Z,101482.63
2022-10-28T22:16:17.952Z,101479.63
2022-10-28T22:18:48.583Z,101487.75
2022-10-28T22:21:18.557Z,101490.19
2022-10-28T22:23:46.205Z,101492.38
2022-10-28T22:26:28.611Z,101504.84
2022-10-28T22:28:56.283Z,101498.06
2022-10-28T22:31:27.491Z,101498.34
2022-10-28T22:33:54.615Z,101503.47
2022-10-28T22:36:24.135Z,101501.03
2022-10-28T22:38:51.564Z,101501.84
2022-10-28T22:41:32.040Z,101494.25
2022-10-28T22:44:02.307Z,101508.34
2022-10-28T22:46:33.400Z,101498.34
2022-10-28T22:49:00.862Z,101492.91
2022-10-28T22:51:27.663Z,101501.84
2022-10-28T22:53:55.705Z,101505.66
2022-10-28T22:56:25.083Z,101498.34
2022-10-28T22:58:59.730Z,101506.47
2022-10-28T23:01:29.378Z,101491.56
2022-10-28T23:03:56.456Z,101506.72
2022-10-28T23:06:26.553Z,101511.06
2022-10-28T23:08:54.636Z,101525.19
2022-10-28T23:11:22.882Z,101532.75
2022-10-28T23:13:54.612Z,101528.97
2022-10-28T23:16:23.370Z,101537.09
2022-10-28T23:18:50.242Z,101533.84
2022-10-28T23:21:20.313Z,101540.63
2022-10-28T23:23:57.396Z,101541.16
2022-10-28T23:26:26.296Z,101550.66
2022-10-28T23:28:57.055Z,101544.69
2022-10-28T23:31:24.477Z,101542.53
2022-10-28T23:33:52.820Z,101538.72
2022-10-28T23:36:20.025Z,101540.41
2022-10-28T23:38:47.063Z,101532.25
2022-10-28T23:41:18.074Z,101530.31
2022-10-28T23:43:45.266Z,101544.16
2022-10-28T23:46:12.300Z,101543.91
2022-10-28T23:48:39.348Z,101541.75
2022-10-28T23:51:07.235Z,101538.22
2022-10-28T23:53:35.043Z,101534.16
2022-10-28T23:56:01.989Z,101534.44
2022-10-28T23:58:28.898Z,101531.19
